Weather History for Sitka, AK

Change the Weather History Date:

Friday, February 15, 2013

  Actual Average Record
Temperature  
Mean Temperature 40 °F -  
Max Temperature 46 °F 40 °F 47 °F (1987)
Min Temperature 35 °F 31 °F 6 °F (1954)
Degree Days  
Heating Degree Days 24    
Moisture  
Dew Point 41 °F    
Average Humidity 95    
Maximum Humidity 100    
Minimum Humidity 87    
Precipitation  
Precipitation 1.49 in - - ()
Sea Level Pressure  
Sea Level Pressure 29.81 in    
Wind  
Wind Speed 15 mph (SSW)    
Max Wind Speed 24 mph    
Max Gust Speed 40 mph    
Visibility 5 miles    
Events Rain    
Averages and records for this station are not official NWS values.
T = Trace of Precipitation, MM = Missing Value Source: NWS Daily Summary

Daily Weather History Graph

Daily Weather History Graph

Search for Another Location

Airport:

Trip Planner

Search our weather history database for the weather conditions in past years. The results will help you decide how hot, cold, wet, or windy it might be!

Date:

Astronomy

Feb. 15, 2013 Rise Set
Actual Time 7:28 AM AKST 5:03 PM AKST
Civil Twilight 6:48 AM AKST 5:43 PM AKST
Nautical Twilight 6:04 AM AKST 6:28 PM AKST
Astronomical Twilight 5:19 AM AKST 7:12 PM AKST
Moon 8:50 AM AKST (2/15) No Moon Set
Length of Visible Light 10h 54m
Length of Day
9h 34m
Waxing Crescent, 31% of the Moon is Illuminated
Feb 15
Waxing Crescent
Feb 17
First Quarter
Feb 25
Full
Mar 4
Last Quarter
Mar 11
New

Hourly Weather History & Observations

Time (AKST) Temp. Windchill Dew Point Humidity Pressure Visibility Wind Dir Wind Speed Gust Speed Precip Events Conditions
12:02 AM 41.0 °F 33.5 °F 39.2 °F 93% 29.82 in 5.0 mi ESE 13.8 mph 18.4 mph 0.02 in Rain Rain
12:53 AM 42.1 °F 34.9 °F 39.9 °F 92% 29.81 in 4.0 mi ESE 13.8 mph - 0.21 in Rain Rain
1:53 AM 44.1 °F 37.1 °F 41.0 °F 89% 29.79 in 4.0 mi SSE 15.0 mph 25.3 mph 0.14 in Rain Rain
3:53 AM 46.0 °F 37.6 °F 44.1 °F 93% 29.76 in 4.0 mi South 24.2 mph 40.3 mph 0.16 in Rain Rain
4:43 AM 44.6 °F 36.4 °F 44.6 °F 100% 29.75 in 2.0 mi South 20.7 mph 36.8 mph 0.12 in Rain Rain
4:53 AM 45.0 °F 37.1 °F 44.1 °F 97% 29.75 in 2.5 mi South 19.6 mph 31.1 mph 0.15 in Rain Heavy Rain
5:12 AM 44.6 °F 35.9 °F 44.6 °F 100% 29.74 in 3.0 mi South 23.0 mph 35.7 mph 0.06 in Rain Rain
5:53 AM 45.0 °F 36.9 °F 44.1 °F 97% 29.73 in 4.0 mi South 20.7 mph 36.8 mph 0.19 in Rain Rain
6:53 AM 45.0 °F 37.1 °F 44.1 °F 97% 29.73 in 4.0 mi South 19.6 mph 27.6 mph 0.18 in Rain Rain
7:07 AM 44.6 °F 36.6 °F 44.6 °F 100% 29.73 in 3.0 mi South 19.6 mph 31.1 mph 0.04 in Rain Rain
7:25 AM 44.6 °F 36.6 °F 44.6 °F 100% 29.73 in 2.0 mi South 19.6 mph 33.4 mph 0.07 in Rain Light Rain
7:53 AM 44.1 °F 37.1 °F 44.1 °F 100% 29.74 in 2.5 mi South 15.0 mph 28.8 mph 0.11 in Rain Light Rain
8:18 AM 44.6 °F 37.8 °F 44.6 °F 100% 29.75 in 2.0 mi South 15.0 mph 23.0 mph 0.01 in Rain Light Rain
8:53 AM 45.0 °F 37.9 °F 44.1 °F 97% 29.75 in 1.5 mi South 16.1 mph 26.5 mph 0.03 in Rain Light Rain
9:12 AM 44.6 °F 38.1 °F 44.6 °F 100% 29.75 in 2.0 mi South 13.8 mph 24.2 mph 0.01 in Rain Light Rain
9:17 AM 44.6 °F 37.8 °F 44.6 °F 100% 29.75 in 1.8 mi South 15.0 mph 23.0 mph 0.01 in Rain Light Rain
9:25 AM 44.6 °F 36.9 °F 44.6 °F 100% 29.75 in 2.0 mi South 18.4 mph 26.5 mph 0.02 in Rain Light Rain
9:42 AM 44.6 °F 37.2 °F 44.6 °F 100% 29.75 in 1.8 mi South 17.3 mph 24.2 mph 0.02 in Rain Light Rain
9:53 AM 44.1 °F 37.4 °F 44.1 °F 100% 29.75 in 1.8 mi South 13.8 mph 21.9 mph 0.03 in Rain Light Rain
10:00 AM 44.6 °F 37.8 °F 44.6 °F 100% 29.75 in 2.0 mi South 15.0 mph 21.9 mph 0.00 in Rain Light Rain
10:21 AM 44.6 °F 39.2 °F 44.6 °F 100% 29.75 in 3.0 mi South 10.4 mph - 0.00 in Rain Light Rain
10:25 AM 44.6 °F 38.8 °F 44.6 °F 100% 29.75 in 2.5 mi South 11.5 mph - 0.00 in Rain Light Rain
10:47 AM 44.6 °F 35.7 °F 42.8 °F 93% 29.75 in 1.8 mi South 24.2 mph 31.1 mph 0.01 in Rain Light Rain
10:53 AM 44.1 °F 36.5 °F 43.0 °F 96% 29.75 in 1.8 mi South 17.3 mph 31.1 mph 0.02 in Rain Light Rain
10:58 AM 42.8 °F 34.8 °F 42.8 °F 100% 29.74 in 2.0 mi South 17.3 mph 31.1 mph 0.00 in Rain Light Rain
11:11 AM 44.6 °F 37.2 °F 42.8 °F 93% 29.75 in 3.0 mi South 17.3 mph 32.2 mph 0.00 in Rain Light Rain
11:18 AM 44.6 °F 37.2 °F 42.8 °F 93% 29.75 in 7.0 mi South 17.3 mph 26.5 mph 0.00 in   Overcast
11:31 AM 44.6 °F 36.9 °F 42.8 °F 93% 29.75 in 5.0 mi South 18.4 mph 25.3 mph 0.00 in Rain Light Rain
11:40 AM 44.6 °F 38.1 °F 42.8 °F 93% 29.75 in 4.0 mi South 13.8 mph 26.5 mph 0.01 in Rain Light Rain
11:53 AM 43.0 °F 35.4 °F 42.1 °F 97% 29.75 in 6.0 mi South 16.1 mph 25.3 mph 0.01 in Rain Light Rain
12:23 PM 42.8 °F 34.3 °F 41.0 °F 93% 29.76 in 4.0 mi South 19.6 mph 27.6 mph 0.00 in Rain Light Rain
12:30 PM 42.8 °F 34.3 °F 41.0 °F 93% 29.76 in 5.0 mi South 19.6 mph 27.6 mph 0.00 in Rain Light Rain
12:53 PM 42.1 °F 34.9 °F 41.0 °F 96% 29.77 in 4.0 mi South 13.8 mph - 0.00 in Rain Light Rain
1:02 PM 42.8 °F 38.0 °F 41.0 °F 93% 29.77 in 9.0 mi South 8.1 mph - 0.00 in   Overcast
1:34 PM 42.8 °F 36.6 °F 41.0 °F 93% 29.78 in 5.0 mi South 11.5 mph - 0.00 in   Overcast
1:42 PM 42.8 °F 37.0 °F 41.0 °F 93% 29.78 in 5.0 mi South 10.4 mph - 0.00 in   Overcast
1:53 PM 42.1 °F 35.2 °F 41.0 °F 96% 29.78 in 9.0 mi South 12.7 mph 19.6 mph 0.00 in   Overcast
2:01 PM 42.8 °F 36.2 °F 41.0 °F 93% 29.79 in 8.0 mi South 12.7 mph 18.4 mph N/A   Overcast
2:15 PM 42.8 °F 37.5 °F 41.0 °F 93% 29.79 in 2.0 mi South 9.2 mph - 0.01 in Rain Light Rain
2:22 PM 42.8 °F 38.6 °F 41.0 °F 93% 29.79 in 1.5 mi South 6.9 mph - 0.01 in Rain Light Rain
2:31 PM 42.8 °F 36.2 °F 42.8 °F 100% 29.80 in 1.5 mi SSW 12.7 mph 20.7 mph 0.02 in Rain Light Rain
2:46 PM 42.8 °F 36.2 °F 41.0 °F 93% 29.80 in 2.0 mi WSW 12.7 mph - 0.04 in Rain Light Rain
2:51 PM 41.0 °F 33.1 °F 39.2 °F 93% 29.81 in 5.0 mi WSW 15.0 mph - 0.04 in Rain Light Rain
2:53 PM 41.0 °F 32.8 °F 39.9 °F 96% 29.81 in 8.0 mi WSW 16.1 mph 23.0 mph 0.04 in Rain Light Rain
3:05 PM 41.0 °F 33.5 °F 39.2 °F 93% 29.82 in 10.0 mi WSW 13.8 mph - N/A   Overcast
3:25 PM 42.8 °F 36.2 °F 39.2 °F 87% 29.83 in 10.0 mi WSW 12.7 mph - N/A   Overcast
3:31 PM 42.8 °F 35.1 °F 39.2 °F 87% 29.83 in 10.0 mi West 16.1 mph 21.9 mph N/A   Overcast
3:51 PM 42.8 °F 37.5 °F 39.2 °F 87% 29.85 in 10.0 mi West 9.2 mph - 0.00 in   Overcast
3:53 PM 42.1 °F 37.1 °F 39.9 °F 92% 29.85 in 10.0 mi West 8.1 mph - 0.00 in   Overcast
4:39 PM 41.0 °F 35.8 °F 39.2 °F 93% 29.87 in 10.0 mi WSW 8.1 mph - N/A   Overcast
4:53 PM 41.0 °F 35.2 °F 39.0 °F 93% 29.88 in 10.0 mi WSW 9.2 mph - N/A   Overcast
5:53 PM 41.0 °F 35.2 °F 39.0 °F 93% 29.89 in 10.0 mi WSW 9.2 mph - 0.00 in   Overcast
6:00 PM 41.0 °F 34.7 °F 37.4 °F 87% 29.89 in 10.0 mi WSW 10.4 mph - N/A   Overcast
6:38 PM 41.0 °F 36.4 °F 39.2 °F 93% 29.89 in 10.0 mi WSW 6.9 mph - 0.00 in   Overcast
6:53 PM 41.0 °F 39.0 °F 37.9 °F 89% 29.90 in 10.0 mi WSW 3.5 mph - 0.00 in   Overcast
7:53 PM 39.9 °F 32.5 °F 37.0 °F 89% 29.91 in 10.0 mi SW 12.7 mph - 0.01 in   Overcast
8:01 PM 39.2 °F 32.0 °F 37.4 °F 93% 29.91 in 9.0 mi SW 11.5 mph - N/A   Overcast
8:21 PM 39.2 °F 35.9 °F 37.4 °F 93% 29.91 in 10.0 mi SSW 4.6 mph - 0.00 in Rain Light Rain
8:41 PM 39.2 °F 31.6 °F 37.4 °F 93% 29.91 in 10.0 mi WSW 12.7 mph 18.4 mph 0.01 in Rain Light Rain
8:53 PM 39.9 °F 34.5 °F 37.0 °F 89% 29.91 in 4.0 mi SSW 8.1 mph - 0.03 in Rain Light Rain
9:53 PM 39.0 °F 34.0 °F 37.0 °F 93% 29.92 in 10.0 mi ENE 6.9 mph - 0.00 in Rain Light Rain
10:51 PM 37.4 °F 34.9 °F 37.4 °F 100% 29.94 in 6.0 mi SSE 3.5 mph - 0.09 in Rain Light Rain
10:53 PM 37.9 °F 35.5 °F 37.0 °F 97% 29.94 in 6.0 mi South 3.5 mph - 0.09 in Rain Light Rain
11:51 PM 35.6 °F 30.7 °F 35.6 °F 100% 29.96 in 4.0 mi ENE 5.8 mph - 0.09 in Rain Light Rain
11:53 PM 36.0 °F 31.1 °F 35.1 °F 97% 29.96 in 4.0 mi ENE 5.8 mph - 0.09 in Rain Light Rain